Tropical Cyclones
[Index]
Main Index Home Page Stock Weather Photos Extreme Storms Discussion Storm News and Storm Chasing Reports Tropical Cyclones / Hurricanes / Typhoons Weather Data and Links Wild Fires / Bushfires Weather Observation Techniques Weather Picture Catalogue Tornado Pictures and Reports Stock Video Footage and DVDs for sale
Season 1989-1990 Tropical Cyclone TINA Track Map
Season 1989-1990 Summaries: [BoM-AU] [JTWC-AU] [JTWC-SIO] [JTWC-SPAC] [JTWC-SH]
<<- Previous TC | BoM 1989-1990 Season | Next TC ->>

click for intensity scale information  Lat/long Grid: Show Hide

 Date Labels: Show Hide

Bureau of Meteorology Tropical Cyclone Data

Name: TINA
Number: 732 / 198990_13

24 Jan 1990 01:00 UTC to 29 Jan 1990 06:00 UTC

    date/time    lat    long    hPa   cat  kts
1990-01-24 01   14.3   117.0   1002         19          
1990-01-24 06   14.3   116.6   1000         19          
1990-01-24 09   14.4   116.0   1000         19          
1990-01-24 16   14.6   115.1   1000         19          
1990-01-25 00   14.8   114.0    995    1    30          
1990-01-25 01   14.9   113.9    995    1    30          
1990-01-25 06   15.0   113.7    993    1    35          
1990-01-25 09   15.2   113.6    993    1    35          
1990-01-25 12   15.3   113.5    991    1    35          
1990-01-25 16   15.4   113.4    991    1    35          
1990-01-25 18   15.5   113.3    990    1    35          
1990-01-26 00   15.7   113.1    988    1    35          
1990-01-26 01   15.9   113.0    988    1    35          
1990-01-26 06   16.5   113.0    985    2    35          
1990-01-26 12   17.4   113.1    984    2    50          
1990-01-26 14   17.7   113.2    984    2    50          
1990-01-26 16   18.2   113.2    982    2    50          
1990-01-26 18   18.5   113.3    980    2    50          
1990-01-26 19   18.7   113.3    979    2    50          
1990-01-27 00   19.5   113.5    976    2    50          
1990-01-27 01   19.7   113.5    976    2    50          
1990-01-27 06   20.8   113.6    976    2    35          
1990-01-27 09   21.2   113.8    976    2    35          
1990-01-27 10   21.5   113.9    976    2    35          
1990-01-27 12   22.0   114.0    976    2    35          
1990-01-27 16   22.9   114.2    978    2    35          
1990-01-27 18   23.7   114.3    977    2    35          
1990-01-28 00   25.5   114.5    978    2    30          
1990-01-28 01   25.9   114.6    980    2    30          
1990-01-28 06   27.4   114.8    982    2    30          
1990-01-28 10   29.0   115.6    987    1    30          
1990-01-28 12   29.6   116.2    988    1    30          
1990-01-28 18   30.7   118.3    992    1    30          
1990-01-29 00   33.4   121.5    994    1    30          
1990-01-29 06   36.0   125.0    995    1    30          
Winds are 10-min average.

Tropical cyclone tracks developed by Michael Bath using data from the Bureau of Meteorology and Google Maps.


[Australian Severe Weather index] [Copyright Notice] [Email Contacts] [Search This Site] [Privacy Policy]
Document: tropical_cyclone_tina.htm Updated: 4 April 2018